createdAt,value
2017-06-25T00:00:25.940Z,0
2017-06-25T00:01:27.966Z,0
2017-06-25T00:02:29.991Z,0
2017-06-25T00:03:32.024Z,0
2017-06-25T00:04:34.052Z,0
2017-06-25T00:05:36.076Z,0
2017-06-25T00:06:38.105Z,0
2017-06-25T00:07:40.460Z,0
2017-06-25T00:08:42.488Z,0
2017-06-25T00:09:44.849Z,0
2017-06-25T00:10:46.877Z,0
2017-06-25T00:11:48.903Z,0
2017-06-25T00:12:51.609Z,0
2017-06-25T00:13:53.633Z,0
2017-06-25T00:14:55.664Z,0
2017-06-25T00:15:57.692Z,0
2017-06-25T00:16:59.717Z,0
2017-06-25T00:18:01.745Z,0
2017-06-25T00:19:03.778Z,0
2017-06-25T00:20:05.821Z,0
2017-06-25T00:21:07.852Z,0
2017-06-25T00:22:09.912Z,0
2017-06-25T00:23:11.971Z,0
2017-06-25T00:24:13.994Z,0
2017-06-25T00:25:16.069Z,0
2017-06-25T00:26:18.094Z,0
2017-06-25T00:27:20.152Z,0
2017-06-25T00:28:22.196Z,0
2017-06-25T00:29:24.216Z,0
2017-06-25T00:30:26.240Z,0
2017-06-25T00:31:28.267Z,0
2017-06-25T00:32:30.292Z,0
2017-06-25T00:33:32.319Z,0
2017-06-25T00:34:34.350Z,0
2017-06-25T00:35:36.374Z,0
2017-06-25T00:36:38.406Z,0
2017-06-25T00:37:40.762Z,0
2017-06-25T00:38:42.793Z,0
2017-06-25T00:39:44.822Z,0
2017-06-25T00:40:46.847Z,0
2017-06-25T00:41:48.871Z,0
2017-06-25T00:42:51.231Z,0
2017-06-25T00:43:54.324Z,0
2017-06-25T00:44:57.943Z,0
2017-06-25T00:46:01.169Z,0
2017-06-25T00:47:04.256Z,0
2017-06-25T00:48:07.939Z,0
2017-06-25T00:49:12.303Z,0
2017-06-25T00:50:15.015Z,0
2017-06-25T00:51:18.617Z,0
2017-06-25T00:52:21.778Z,0
2017-06-25T00:53:25.159Z,0
2017-06-25T00:54:27.516Z,0
2017-06-25T00:55:29.546Z,0
2017-06-25T00:56:31.575Z,0
2017-06-25T00:57:33.602Z,0
2017-06-25T00:58:35.829Z,0
2017-06-25T00:59:37.871Z,0
2017-06-25T01:00:39.904Z,0
2017-06-25T01:01:41.939Z,0
2017-06-25T01:02:44.303Z,0
2017-06-25T01:03:46.330Z,0
2017-06-25T01:04:48.358Z,0
2017-06-25T01:05:50.737Z,0
2017-06-25T01:06:52.761Z,0
2017-06-25T01:07:54.787Z,0
2017-06-25T01:08:56.814Z,0
2017-06-25T01:09:58.831Z,0
2017-06-25T01:11:00.855Z,0
2017-06-25T01:12:02.885Z,0
2017-06-25T01:13:05.588Z,0
2017-06-25T01:14:07.616Z,0
2017-06-25T01:15:09.663Z,0
2017-06-25T01:16:12.028Z,0
2017-06-25T01:17:14.045Z,0
2017-06-25T01:18:16.070Z,0
2017-06-25T01:19:18.443Z,0
2017-06-25T01:20:20.485Z,0
2017-06-25T01:21:22.516Z,0
2017-06-25T01:22:24.538Z,0
2017-06-25T01:23:26.574Z,0
2017-06-25T01:24:28.604Z,0
2017-06-25T01:25:30.645Z,0
2017-06-25T01:26:32.676Z,0
2017-06-25T01:27:34.696Z,0
2017-06-25T01:28:37.058Z,0
2017-06-25T01:29:39.083Z,0
2017-06-25T01:30:41.442Z,0
2017-06-25T01:31:43.469Z,0
2017-06-25T01:32:45.852Z,0
2017-06-25T01:33:47.877Z,0
2017-06-25T01:34:49.900Z,0
2017-06-25T01:35:51.926Z,0
2017-06-25T01:36:53.954Z,0
2017-06-25T01:37:55.977Z,0
2017-06-25T01:38:58.002Z,0
2017-06-25T01:40:00.373Z,0
2017-06-25T01:41:02.391Z,0
2017-06-25T01:42:04.769Z,0
2017-06-25T01:43:06.790Z,0
2017-06-25T01:44:09.155Z,0
2017-06-25T01:45:11.186Z,0
2017-06-25T01:46:13.219Z,0
2017-06-25T01:47:15.236Z,0
2017-06-25T01:48:17.691Z,0
2017-06-25T01:49:21.519Z,0
2017-06-25T01:50:25.261Z,0
2017-06-25T01:51:28.887Z,0
2017-06-25T01:52:31.231Z,0
2017-06-25T01:53:34.025Z,0
2017-06-25T01:54:37.278Z,0
2017-06-25T01:55:40.196Z,0
2017-06-25T01:56:42.628Z,0
2017-06-25T01:57:46.291Z,0
2017-06-25T01:58:49.140Z,0
2017-06-25T01:59:51.503Z,0
2017-06-25T02:00:54.250Z,0
2017-06-25T02:01:57.027Z,0
2017-06-25T02:02:59.296Z,0
2017-06-25T02:04:01.423Z,0
2017-06-25T02:05:04.367Z,0
2017-06-25T02:06:07.081Z,0
2017-06-25T02:07:09.739Z,0
2017-06-25T02:08:12.593Z,0
2017-06-25T02:09:14.972Z,0
2017-06-25T02:10:17.880Z,0
2017-06-25T02:11:20.591Z,0
2017-06-25T02:12:22.765Z,0
2017-06-25T02:13:25.220Z,0
2017-06-25T02:14:28.269Z,0
2017-06-25T02:15:30.748Z,0
2017-06-25T02:16:33.740Z,0
2017-06-25T02:17:36.067Z,0
2017-06-25T02:18:38.177Z,0
2017-06-25T02:19:40.633Z,0
2017-06-25T02:20:43.586Z,0
2017-06-25T02:21:46.061Z,0
2017-06-25T02:22:48.411Z,0
2017-06-25T02:23:50.465Z,0
2017-06-25T02:24:52.551Z,0
2017-06-25T02:25:54.587Z,0
2017-06-25T02:26:56.693Z,0
2017-06-25T02:27:58.748Z,0
2017-06-25T02:29:01.392Z,0
2017-06-25T02:30:03.568Z,0
2017-06-25T02:31:06.143Z,0
2017-06-25T02:32:08.178Z,0
2017-06-25T02:33:10.230Z,0
2017-06-25T02:34:12.319Z,0
2017-06-25T02:35:14.367Z,0
2017-06-25T02:36:16.391Z,0
2017-06-25T02:37:18.415Z,0
2017-06-25T02:38:20.484Z,0
2017-06-25T02:39:22.510Z,0
2017-06-25T02:40:24.561Z,0
2017-06-25T02:41:26.629Z,0
2017-06-25T02:42:28.721Z,0
2017-06-25T02:43:30.785Z,0
2017-06-25T02:44:32.819Z,0
2017-06-25T02:45:34.870Z,0
2017-06-25T02:46:37.307Z,0
2017-06-25T02:47:39.374Z,0
2017-06-25T02:48:41.427Z,0
2017-06-25T02:49:43.491Z,0
2017-06-25T02:50:45.678Z,0
2017-06-25T02:51:47.719Z,0
2017-06-25T02:52:49.756Z,0
2017-06-25T02:53:51.819Z,0
2017-06-25T02:54:53.866Z,0
2017-06-25T02:55:55.899Z,0
2017-06-25T02:56:57.962Z,0
2017-06-25T02:58:00.234Z,0
2017-06-25T02:59:02.260Z,0
2017-06-25T03:00:04.300Z,0
2017-06-25T03:01:06.397Z,0
2017-06-25T03:02:08.448Z,0
2017-06-25T03:03:10.502Z,0
2017-06-25T03:04:12.573Z,0
2017-06-25T03:05:14.992Z,0
2017-06-25T03:06:17.068Z,0
2017-06-25T03:07:19.112Z,0
2017-06-25T03:08:21.175Z,0
2017-06-25T03:09:23.341Z,0
2017-06-25T03:10:25.414Z,0
2017-06-25T03:11:27.491Z,0
2017-06-25T03:12:29.520Z,0
2017-06-25T03:13:31.590Z,0
2017-06-25T03:14:33.629Z,0
2017-06-25T03:15:36.035Z,0
2017-06-25T03:16:38.436Z,0
2017-06-25T03:17:40.483Z,1
2017-06-25T03:18:42.514Z,1
2017-06-25T03:19:44.610Z,1
2017-06-25T03:20:47.018Z,1
2017-06-25T03:21:49.056Z,1
2017-06-25T03:22:51.111Z,2
2017-06-25T03:23:53.148Z,2
2017-06-25T03:24:55.169Z,2
2017-06-25T03:25:57.202Z,2
2017-06-25T03:26:59.242Z,2
2017-06-25T03:28:01.671Z,3
2017-06-25T03:29:03.753Z,4
2017-06-25T03:30:05.781Z,3
2017-06-25T03:31:07.816Z,3
2017-06-25T03:32:09.838Z,3
2017-06-25T03:33:11.891Z,3
2017-06-25T03:34:14.014Z,3
2017-06-25T03:35:16.044Z,3
2017-06-25T03:36:18.084Z,3
2017-06-25T03:37:20.468Z,3
2017-06-25T03:38:22.549Z,3
2017-06-25T03:39:24.576Z,3
2017-06-25T03:40:26.604Z,3
2017-06-25T03:41:28.885Z,2
2017-06-25T03:42:31.339Z,2
2017-06-25T03:43:33.863Z,2
2017-06-25T03:44:36.124Z,2
2017-06-25T03:45:38.160Z,2
2017-06-25T03:46:40.346Z,2
2017-06-25T03:47:42.436Z,1
2017-06-25T03:48:44.596Z,1
2017-06-25T03:49:46.767Z,1
2017-06-25T03:50:48.961Z,1
2017-06-25T03:51:51.285Z,1
2017-06-25T03:52:53.434Z,1
2017-06-25T03:53:55.499Z,1
2017-06-25T03:54:57.844Z,1
2017-06-25T03:55:59.945Z,1
2017-06-25T03:57:02.013Z,1
2017-06-25T03:58:04.106Z,1
2017-06-25T03:59:06.549Z,1
2017-06-25T04:00:08.654Z,1
2017-06-25T04:01:10.705Z,1
2017-06-25T04:02:12.747Z,1
2017-06-25T04:03:14.826Z,1
2017-06-25T04:04:16.932Z,1
2017-06-25T04:05:19.315Z,1
2017-06-25T04:06:21.420Z,1
2017-06-25T04:07:23.854Z,1
2017-06-25T04:08:25.917Z,1
2017-06-25T04:09:28.048Z,2
2017-06-25T04:10:30.160Z,2
2017-06-25T04:11:32.288Z,2
2017-06-25T04:12:34.401Z,2
2017-06-25T04:13:36.455Z,2
2017-06-25T04:14:38.512Z,2
2017-06-25T04:15:40.923Z,2
2017-06-25T04:16:43.100Z,3
2017-06-25T04:17:45.265Z,3
2017-06-25T04:18:47.418Z,3
2017-06-25T04:19:49.524Z,4
2017-06-25T04:20:51.679Z,4
2017-06-25T04:21:53.867Z,4
2017-06-25T04:22:55.944Z,4
2017-06-25T04:23:58.043Z,4
2017-06-25T04:25:00.103Z,4
2017-06-25T04:26:02.376Z,4
2017-06-25T04:27:04.776Z,5
2017-06-25T04:28:06.879Z,5
2017-06-25T04:29:08.928Z,5
2017-06-25T04:30:10.980Z,4
2017-06-25T04:31:13.195Z,4
2017-06-25T04:32:15.283Z,4
2017-06-25T04:33:17.908Z,4
2017-06-25T04:34:20.025Z,5
2017-06-25T04:35:22.099Z,5
2017-06-25T04:36:24.286Z,4
2017-06-25T04:37:26.316Z,4
2017-06-25T04:38:28.443Z,5
2017-06-25T04:39:30.511Z,4
2017-06-25T04:40:32.731Z,3
2017-06-25T04:41:34.904Z,3
2017-06-25T04:42:37.109Z,3
2017-06-25T04:43:39.261Z,4
2017-06-25T04:44:41.389Z,5
2017-06-25T04:45:43.865Z,4
2017-06-25T04:46:46.029Z,4
2017-06-25T04:47:48.131Z,3
2017-06-25T04:48:50.348Z,3
2017-06-25T04:49:52.727Z,3
2017-06-25T04:50:54.849Z,4
2017-06-25T04:51:56.970Z,4
2017-06-25T04:52:59.053Z,5
2017-06-25T04:54:01.271Z,5
2017-06-25T04:55:03.424Z,4
2017-06-25T04:56:05.519Z,4
2017-06-25T04:57:07.704Z,4
2017-06-25T04:58:09.774Z,4
2017-06-25T04:59:11.816Z,4
2017-06-25T05:00:13.838Z,4
2017-06-25T05:01:15.864Z,5
2017-06-25T05:02:22.069Z,5
2017-06-25T05:03:24.463Z,5
2017-06-25T05:04:26.828Z,5
2017-06-25T05:05:29.202Z,5
2017-06-25T05:06:31.249Z,5
2017-06-25T05:07:33.306Z,6
2017-06-25T05:08:35.845Z,6
2017-06-25T05:09:40.733Z,6
2017-06-25T05:10:44.393Z,6
2017-06-25T05:11:46.424Z,7
2017-06-25T05:12:48.457Z,8
2017-06-25T05:13:51.191Z,10
2017-06-25T05:14:53.558Z,11
2017-06-25T05:15:58.189Z,10
2017-06-25T05:17:04.481Z,10
2017-06-25T05:18:10.815Z,11
2017-06-25T05:19:16.360Z,10
2017-06-25T05:20:22.398Z,9
2017-06-25T05:21:24.831Z,7
2017-06-25T05:22:26.873Z,6
2017-06-25T05:23:28.902Z,6
2017-06-25T05:24:30.952Z,5
2017-06-25T05:25:35.990Z,5
2017-06-25T05:26:43.049Z,4
2017-06-25T05:27:51.008Z,4
2017-06-25T05:28:58.501Z,5
2017-06-25T05:30:00.920Z,5
2017-06-25T05:31:02.951Z,4
2017-06-25T05:32:04.982Z,5
2017-06-25T05:33:07.063Z,7
2017-06-25T05:34:12.674Z,9
2017-06-25T05:35:17.256Z,11
2017-06-25T05:36:24.505Z,9
2017-06-25T05:37:29.985Z,9
2017-06-25T05:38:32.023Z,9
2017-06-25T05:39:34.060Z,7
2017-06-25T05:40:36.100Z,6
2017-06-25T05:41:38.128Z,5
2017-06-25T05:42:45.216Z,5
2017-06-25T05:43:52.690Z,5
2017-06-25T05:44:58.608Z,6
2017-06-25T05:46:05.387Z,5
2017-06-25T05:47:07.885Z,6
2017-06-25T05:48:10.291Z,7
2017-06-25T05:49:12.368Z,7
2017-06-25T05:50:14.452Z,7
2017-06-25T05:51:17.331Z,7
2017-06-25T05:52:19.993Z,6
2017-06-25T05:53:23.050Z,7
2017-06-25T05:54:25.486Z,8
2017-06-25T05:55:28.464Z,7
2017-06-25T05:56:30.978Z,7
2017-06-25T05:57:33.782Z,5
2017-06-25T05:58:36.308Z,5
2017-06-25T05:59:38.926Z,5
2017-06-25T06:00:41.807Z,6
2017-06-25T06:01:44.281Z,5
2017-06-25T06:02:46.506Z,4
2017-06-25T06:03:51.856Z,4
2017-06-25T06:04:54.822Z,4
2017-06-25T06:05:59.457Z,3
2017-06-25T06:07:01.925Z,3
2017-06-25T06:08:04.316Z,4
2017-06-25T06:09:06.383Z,4
2017-06-25T06:10:08.443Z,3
2017-06-25T06:11:10.475Z,3
2017-06-25T06:12:12.525Z,3
2017-06-25T06:13:14.711Z,3
2017-06-25T06:14:17.100Z,2
2017-06-25T06:15:19.135Z,4
2017-06-25T06:16:21.175Z,4
2017-06-25T06:17:23.295Z,6
2017-06-25T06:18:25.335Z,5
2017-06-25T06:19:27.373Z,7
2017-06-25T06:20:29.403Z,8
2017-06-25T06:21:31.487Z,8
2017-06-25T06:22:33.518Z,7
2017-06-25T06:23:35.547Z,6
2017-06-25T06:24:37.807Z,8
2017-06-25T06:25:39.892Z,9
2017-06-25T06:26:41.925Z,11
2017-06-25T06:27:43.953Z,8
2017-06-25T06:28:46.008Z,7
2017-06-25T06:29:48.111Z,10
2017-06-25T06:30:50.137Z,14
2017-06-25T06:31:52.167Z,16
2017-06-25T06:32:54.197Z,17
2017-06-25T06:33:56.220Z,19
2017-06-25T06:34:58.303Z,17
2017-06-25T06:36:00.362Z,13
2017-06-25T06:37:02.400Z,11
2017-06-25T06:38:04.816Z,10
2017-06-25T06:39:06.856Z,9
2017-06-25T06:40:08.887Z,8
2017-06-25T06:41:10.917Z,10
2017-06-25T06:42:12.944Z,12
2017-06-25T06:43:14.978Z,13
2017-06-25T06:44:17.001Z,13
2017-06-25T06:45:19.034Z,12
2017-06-25T06:46:21.069Z,11
2017-06-25T06:47:23.099Z,10
2017-06-25T06:48:25.129Z,8
2017-06-25T06:49:27.152Z,9
2017-06-25T06:50:29.181Z,9
2017-06-25T06:51:31.238Z,8
2017-06-25T06:52:33.607Z,6
2017-06-25T06:53:35.634Z,5
2017-06-25T06:54:37.666Z,5
2017-06-25T06:55:39.697Z,3
2017-06-25T06:56:41.729Z,2
2017-06-25T06:57:43.755Z,1
2017-06-25T06:58:45.785Z,1
2017-06-25T06:59:48.051Z,2
2017-06-25T07:00:50.078Z,2
2017-06-25T07:01:52.116Z,2
2017-06-25T07:02:54.147Z,2
2017-06-25T07:03:56.184Z,2
2017-06-25T07:04:58.207Z,4
2017-06-25T07:06:00.235Z,5
2017-06-25T07:07:02.619Z,5
2017-06-25T07:08:05.005Z,6
2017-06-25T07:09:07.030Z,8
2017-06-25T07:10:09.062Z,9
2017-06-25T07:11:11.093Z,11
2017-06-25T07:12:13.126Z,11
2017-06-25T07:13:15.830Z,12
2017-06-25T07:14:17.863Z,12
2017-06-25T07:15:19.894Z,12
2017-06-25T07:16:21.934Z,14
2017-06-25T07:17:23.954Z,13
2017-06-25T07:18:25.989Z,11
2017-06-25T07:19:28.021Z,9
2017-06-25T07:20:30.047Z,9
2017-06-25T07:21:32.075Z,10
2017-06-25T07:22:34.102Z,10
2017-06-25T07:24:36.292Z,10
2017-06-25T07:25:38.341Z,10
2017-06-25T07:26:40.393Z,11
2017-06-25T07:27:42.454Z,12
2017-06-25T07:28:44.510Z,12
2017-06-25T07:29:46.559Z,13
2017-06-25T07:30:48.615Z,14
2017-06-25T07:31:50.656Z,15
2017-06-25T07:32:52.707Z,16
2017-06-25T07:33:54.759Z,16
2017-06-25T07:34:56.820Z,16
2017-06-25T07:35:58.868Z,17
2017-06-25T07:37:01.261Z,17
2017-06-25T07:38:03.314Z,17
2017-06-25T07:39:05.698Z,18
2017-06-25T07:40:07.755Z,18
2017-06-25T07:41:09.819Z,18
2017-06-25T07:42:11.864Z,18
2017-06-25T07:43:13.915Z,18
2017-06-25T07:44:15.972Z,20
2017-06-25T07:45:18.031Z,23
2017-06-25T07:46:20.084Z,24
2017-06-25T07:47:22.133Z,21
2017-06-25T07:48:24.190Z,18
2017-06-25T07:49:26.239Z,17
2017-06-25T07:50:28.287Z,18
2017-06-25T07:51:30.337Z,17
2017-06-25T07:52:32.384Z,16
2017-06-25T07:53:34.440Z,15
2017-06-25T07:54:36.827Z,14
2017-06-25T07:55:38.871Z,14
2017-06-25T07:56:40.929Z,14
2017-06-25T07:57:42.981Z,13
2017-06-25T07:58:45.038Z,12
2017-06-25T07:59:47.093Z,13
2017-06-25T08:00:49.147Z,14
2017-06-25T08:01:51.203Z,16
2017-06-25T08:02:53.438Z,18
2017-06-25T08:03:55.489Z,18
2017-06-25T08:04:57.881Z,17
2017-06-25T08:05:59.934Z,16
2017-06-25T08:07:01.996Z,14
2017-06-25T08:08:04.061Z,13
2017-06-25T08:09:06.467Z,13
2017-06-25T08:10:08.858Z,14
2017-06-25T08:11:10.909Z,14
2017-06-25T08:12:12.975Z,15
2017-06-25T08:13:15.026Z,16
2017-06-25T08:14:17.070Z,18
2017-06-25T08:15:19.125Z,19
2017-06-25T08:16:21.169Z,18
2017-06-25T08:17:23.212Z,18
2017-06-25T08:18:25.604Z,17
2017-06-25T08:19:27.648Z,16
2017-06-25T08:20:29.702Z,16
2017-06-25T08:21:32.085Z,17
2017-06-25T08:22:34.473Z,17
2017-06-25T08:23:36.529Z,17
2017-06-25T08:24:38.578Z,17
2017-06-25T08:25:40.630Z,17
2017-06-25T08:26:42.681Z,17
2017-06-25T08:27:44.729Z,17
2017-06-25T08:28:46.778Z,16
2017-06-25T08:29:48.827Z,15
2017-06-25T08:30:50.888Z,15
2017-06-25T08:31:52.940Z,15
2017-06-25T08:32:54.987Z,16
2017-06-25T08:33:57.043Z,17
2017-06-25T08:34:59.094Z,17
2017-06-25T08:36:01.145Z,16
2017-06-25T08:37:03.229Z,16
2017-06-25T08:38:05.635Z,16
2017-06-25T08:39:07.682Z,18
2017-06-25T08:40:09.737Z,18
2017-06-25T08:41:11.798Z,18
2017-06-25T08:42:13.848Z,18
2017-06-25T08:43:15.889Z,17
2017-06-25T08:44:17.950Z,17
2017-06-25T08:45:20.003Z,18
2017-06-25T08:46:22.051Z,19
2017-06-25T08:47:24.116Z,21
2017-06-25T08:48:26.187Z,19
2017-06-25T08:49:28.239Z,17
2017-06-25T08:50:30.299Z,18
2017-06-25T08:51:32.354Z,18
2017-06-25T08:52:34.753Z,18
2017-06-25T08:53:36.799Z,17
2017-06-25T08:54:39.049Z,17
2017-06-25T08:55:41.105Z,18
2017-06-25T08:56:43.153Z,18
2017-06-25T08:57:45.213Z,17
2017-06-25T08:58:47.267Z,16
2017-06-25T08:59:49.332Z,15
2017-06-25T09:00:51.395Z,16
2017-06-25T09:01:53.442Z,17
2017-06-25T09:02:55.503Z,17
2017-06-25T09:03:57.557Z,16
2017-06-25T09:04:59.612Z,16
2017-06-25T09:06:01.669Z,17
2017-06-25T09:07:03.727Z,17
2017-06-25T09:08:05.780Z,17
2017-06-25T09:09:07.838Z,17
2017-06-25T09:10:09.884Z,18
2017-06-25T09:11:11.941Z,19
2017-06-25T09:12:13.992Z,19
2017-06-25T09:13:16.045Z,21
2017-06-25T09:14:18.093Z,23
2017-06-25T09:15:20.144Z,24
2017-06-25T09:16:22.208Z,25
2017-06-25T09:17:24.267Z,26
2017-06-25T09:18:26.318Z,27
2017-06-25T09:19:28.375Z,29
2017-06-25T09:20:30.428Z,30
2017-06-25T09:21:32.482Z,30
2017-06-25T09:22:34.556Z,29
2017-06-25T09:23:36.611Z,28
2017-06-25T09:24:38.664Z,26
2017-06-25T09:25:40.711Z,22
2017-06-25T09:26:42.762Z,20
2017-06-25T09:27:45.167Z,21
2017-06-25T09:28:47.554Z,23
2017-06-25T09:29:49.603Z,26
2017-06-25T09:30:51.650Z,28
2017-06-25T09:31:53.703Z,27
2017-06-25T09:32:55.756Z,24
2017-06-25T09:33:57.812Z,21
2017-06-25T09:35:00.210Z,20
2017-06-25T09:36:02.604Z,21
2017-06-25T09:37:04.656Z,21
2017-06-25T09:38:06.706Z,22
2017-06-25T09:39:08.794Z,24
2017-06-25T09:40:11.380Z,27
2017-06-25T09:41:13.435Z,28
2017-06-25T09:42:15.490Z,25
2017-06-25T09:43:17.540Z,24
2017-06-25T09:44:19.606Z,25
2017-06-25T09:45:21.660Z,25
2017-06-25T09:46:23.736Z,25
2017-06-25T09:47:25.796Z,23
2017-06-25T09:48:27.850Z,22
2017-06-25T09:49:30.247Z,24
2017-06-25T09:50:32.289Z,23
2017-06-25T09:51:34.365Z,21
2017-06-25T09:52:36.421Z,18
2017-06-25T09:53:38.478Z,23
2017-06-25T09:54:40.526Z,24
2017-06-25T09:55:42.580Z,24
2017-06-25T09:56:44.632Z,21
2017-06-25T09:57:46.695Z,20
2017-06-25T09:58:48.751Z,19
2017-06-25T09:59:50.811Z,18
2017-06-25T10:00:52.851Z,18
2017-06-25T10:01:54.906Z,17
2017-06-25T10:02:57.303Z,16
2017-06-25T10:03:59.355Z,18
2017-06-25T10:05:01.744Z,20
2017-06-25T10:06:03.798Z,23
2017-06-25T10:07:05.850Z,22
2017-06-25T10:08:07.908Z,24
2017-06-25T10:09:09.948Z,23
2017-06-25T10:10:12.008Z,24
2017-06-25T10:11:14.322Z,20
2017-06-25T10:12:16.374Z,20
2017-06-25T10:13:18.421Z,20
2017-06-25T10:14:20.472Z,21
2017-06-25T10:15:22.515Z,24
2017-06-25T10:16:24.571Z,21
2017-06-25T10:17:26.618Z,22
2017-06-25T10:18:28.683Z,20
2017-06-25T10:19:30.730Z,17
2017-06-25T10:20:33.126Z,17
2017-06-25T10:21:35.190Z,18
2017-06-25T10:22:37.601Z,17
2017-06-25T10:23:39.672Z,18
2017-06-25T10:24:41.725Z,22
2017-06-25T10:25:43.781Z,25
2017-06-25T10:26:45.859Z,24
2017-06-25T10:27:47.916Z,25
2017-06-25T10:28:49.974Z,25
2017-06-25T10:29:52.050Z,24
2017-06-25T10:30:54.111Z,25
2017-06-25T10:31:56.173Z,21
2017-06-25T10:32:58.572Z,19
2017-06-25T10:34:00.662Z,19
2017-06-25T10:35:02.735Z,19
2017-06-25T10:36:05.126Z,21
2017-06-25T10:37:07.862Z,22
2017-06-25T10:38:10.465Z,21
2017-06-25T10:39:12.698Z,21
2017-06-25T10:40:15.109Z,22
2017-06-25T10:41:17.166Z,25
2017-06-25T10:42:19.225Z,25
2017-06-25T10:43:21.277Z,21
2017-06-25T10:44:23.364Z,19
2017-06-25T10:45:25.424Z,14
2017-06-25T10:46:27.485Z,10
2017-06-25T10:47:29.527Z,9
2017-06-25T10:48:31.594Z,8
2017-06-25T10:49:34.000Z,8
2017-06-25T10:50:36.065Z,7
2017-06-25T10:51:38.121Z,6
2017-06-25T10:52:40.179Z,6
2017-06-25T10:53:42.243Z,6
2017-06-25T10:54:44.296Z,6
2017-06-25T10:55:46.356Z,5
2017-06-25T10:56:48.438Z,5
2017-06-25T10:57:50.492Z,5
2017-06-25T10:58:52.560Z,4
2017-06-25T10:59:54.961Z,3
2017-06-25T11:00:57.013Z,3
2017-06-25T11:01:59.061Z,3
2017-06-25T11:03:01.108Z,3
2017-06-25T11:04:03.158Z,2
2017-06-25T11:05:05.211Z,2
2017-06-25T11:06:07.273Z,2
2017-06-25T11:07:09.324Z,3
2017-06-25T11:08:11.377Z,3
2017-06-25T11:09:13.432Z,3
2017-06-25T11:10:15.475Z,3
2017-06-25T11:11:17.532Z,3
2017-06-25T11:12:19.581Z,3
2017-06-25T11:13:21.631Z,4
2017-06-25T11:14:23.696Z,3
2017-06-25T11:15:25.747Z,3
2017-06-25T11:16:27.795Z,3
2017-06-25T11:17:29.845Z,3
2017-06-25T11:18:31.901Z,3
2017-06-25T11:19:33.949Z,3
2017-06-25T11:20:36.005Z,3
2017-06-25T11:21:38.069Z,3
2017-06-25T11:22:40.173Z,3
2017-06-25T11:23:42.575Z,4
2017-06-25T11:24:44.970Z,3
2017-06-25T11:25:47.049Z,3
2017-06-25T11:26:49.100Z,3
2017-06-25T11:27:51.153Z,3
2017-06-25T11:28:53.213Z,2
2017-06-25T11:29:55.265Z,3
2017-06-25T11:30:57.307Z,3
2017-06-25T11:31:59.361Z,3
2017-06-25T11:33:01.419Z,3
2017-06-25T11:34:03.479Z,3
2017-06-25T11:35:05.525Z,4
2017-06-25T11:36:07.583Z,4
2017-06-25T11:37:09.631Z,5
2017-06-25T11:38:11.716Z,4
2017-06-25T11:39:13.762Z,4
2017-06-25T11:40:16.144Z,4
2017-06-25T11:41:18.208Z,4
2017-06-25T11:42:20.255Z,5
2017-06-25T11:43:22.304Z,5
2017-06-25T11:44:24.354Z,7
2017-06-25T11:45:26.747Z,7
2017-06-25T11:46:29.146Z,6
2017-06-25T11:47:31.187Z,7
2017-06-25T11:48:33.764Z,7
2017-06-25T11:49:35.822Z,7
2017-06-25T11:50:37.874Z,10
2017-06-25T11:51:39.926Z,12
2017-06-25T11:52:41.976Z,12
2017-06-25T11:53:44.030Z,11
2017-06-25T11:54:46.076Z,11
2017-06-25T11:55:48.154Z,11
2017-06-25T11:56:50.206Z,11
2017-06-25T11:57:52.604Z,11
2017-06-25T11:58:54.681Z,11
2017-06-25T11:59:56.752Z,12
2017-06-25T12:00:58.838Z,13
2017-06-25T12:02:01.241Z,12
2017-06-25T12:03:03.292Z,12
2017-06-25T12:04:05.359Z,13
2017-06-25T12:05:07.415Z,11
2017-06-25T12:06:09.467Z,10
2017-06-25T12:07:11.524Z,12
2017-06-25T12:08:13.583Z,11
2017-06-25T12:09:15.989Z,9
2017-06-25T12:10:18.045Z,12
2017-06-25T12:11:20.102Z,14
2017-06-25T12:12:22.148Z,15
2017-06-25T12:13:24.211Z,14
2017-06-25T12:14:26.258Z,13
2017-06-25T12:15:28.312Z,15
2017-06-25T12:16:30.408Z,16
2017-06-25T12:17:32.466Z,14
2017-06-25T12:18:34.526Z,15
2017-06-25T12:19:36.585Z,14
2017-06-25T12:20:38.633Z,13
2017-06-25T12:21:40.699Z,12
2017-06-25T12:22:42.744Z,11
2017-06-25T12:23:44.803Z,11
2017-06-25T12:24:46.859Z,13
2017-06-25T12:25:48.921Z,13
2017-06-25T12:26:50.974Z,14
2017-06-25T12:27:53.041Z,14
2017-06-25T12:28:55.088Z,14
2017-06-25T12:29:57.147Z,13
2017-06-25T12:30:59.194Z,12
2017-06-25T12:32:01.253Z,11
2017-06-25T12:33:03.301Z,10
2017-06-25T12:34:05.356Z,9
2017-06-25T12:35:07.758Z,9
2017-06-25T12:36:09.814Z,11
2017-06-25T12:37:11.864Z,11
2017-06-25T12:38:13.938Z,11
2017-06-25T12:39:16.330Z,13
2017-06-25T12:40:18.397Z,14
2017-06-25T12:41:20.461Z,15
2017-06-25T12:42:22.873Z,15
2017-06-25T12:43:24.930Z,15
2017-06-25T12:44:26.999Z,15
2017-06-25T12:45:29.065Z,15
2017-06-25T12:46:31.113Z,16
2017-06-25T12:47:33.176Z,15
2017-06-25T12:48:35.224Z,16
2017-06-25T12:49:37.619Z,17
2017-06-25T12:50:39.667Z,16
2017-06-25T12:51:41.718Z,14
2017-06-25T12:52:43.775Z,14
2017-06-25T12:53:45.820Z,15
2017-06-25T12:54:47.870Z,16
2017-06-25T12:55:49.935Z,15
2017-06-25T12:56:51.986Z,13
2017-06-25T12:57:54.391Z,13
2017-06-25T12:58:56.445Z,12
2017-06-25T12:59:58.499Z,12
2017-06-25T13:01:00.556Z,13
2017-06-25T13:02:02.616Z,14
2017-06-25T13:03:04.685Z,14
2017-06-25T13:04:06.743Z,14
2017-06-25T13:05:08.794Z,14
2017-06-25T13:06:10.846Z,15
2017-06-25T13:07:12.896Z,16
2017-06-25T13:08:14.949Z,16
2017-06-25T13:09:16.995Z,13
2017-06-25T13:10:19.046Z,11
2017-06-25T13:11:21.132Z,11
2017-06-25T13:12:23.189Z,10
2017-06-25T13:13:25.240Z,11
2017-06-25T13:14:27.292Z,11
2017-06-25T13:15:29.353Z,12
2017-06-25T13:16:31.434Z,12
2017-06-25T13:17:33.476Z,12
2017-06-25T13:18:35.526Z,11
2017-06-25T13:19:37.577Z,10
2017-06-25T13:20:39.634Z,11
2017-06-25T13:21:41.691Z,10
2017-06-25T13:22:43.756Z,13
2017-06-25T13:23:45.816Z,10
2017-06-25T13:24:47.868Z,11
2017-06-25T13:25:49.920Z,11
2017-06-25T13:26:51.995Z,12
2017-06-25T13:27:54.040Z,15
2017-06-25T13:28:56.095Z,16
2017-06-25T13:29:58.151Z,17
2017-06-25T13:31:00.205Z,18
2017-06-25T13:32:02.269Z,18
2017-06-25T13:33:04.326Z,18
2017-06-25T13:34:06.374Z,17
2017-06-25T13:35:08.435Z,16
2017-06-25T13:36:10.497Z,14
2017-06-25T13:37:12.543Z,14
2017-06-25T13:38:14.603Z,14
2017-06-25T13:39:16.668Z,12
2017-06-25T13:40:18.729Z,12
2017-06-25T13:41:20.790Z,12
2017-06-25T13:42:22.844Z,13
2017-06-25T13:43:24.926Z,14
2017-06-25T13:44:26.983Z,14
2017-06-25T13:45:29.031Z,15
2017-06-25T13:46:31.092Z,17
2017-06-25T13:47:33.480Z,18
2017-06-25T13:48:35.528Z,18
2017-06-25T13:49:37.585Z,18
2017-06-25T13:50:39.644Z,18
2017-06-25T13:51:41.697Z,20
2017-06-25T13:52:43.747Z,20
2017-06-25T13:53:45.798Z,19
2017-06-25T13:54:48.373Z,20
2017-06-25T13:55:50.420Z,20
2017-06-25T13:56:52.476Z,21
2017-06-25T13:57:54.539Z,21
2017-06-25T13:58:56.589Z,21
2017-06-25T13:59:58.850Z,21
2017-06-25T14:01:00.902Z,20
2017-06-25T14:02:03.321Z,20
2017-06-25T14:03:05.389Z,18
2017-06-25T14:04:07.442Z,18
2017-06-25T14:05:09.491Z,18
2017-06-25T14:06:11.555Z,19
2017-06-25T14:07:13.641Z,19
2017-06-25T14:08:15.701Z,18
2017-06-25T14:09:17.748Z,18
2017-06-25T14:10:19.803Z,18
2017-06-25T14:11:21.860Z,18
2017-06-25T14:12:23.915Z,18
2017-06-25T14:13:25.997Z,19
2017-06-25T14:14:28.053Z,19
2017-06-25T14:15:30.116Z,18
2017-06-25T14:16:32.163Z,17
2017-06-25T14:17:34.562Z,17
2017-06-25T14:18:36.627Z,16
2017-06-25T14:19:38.677Z,15
2017-06-25T14:20:40.728Z,14
2017-06-25T14:21:42.783Z,13
2017-06-25T14:22:44.832Z,12
2017-06-25T14:23:46.889Z,13
2017-06-25T14:24:49.281Z,13
2017-06-25T14:25:51.339Z,14
2017-06-25T14:26:53.389Z,15
2017-06-25T14:27:55.793Z,16
2017-06-25T14:28:57.870Z,18
2017-06-25T14:30:00.288Z,19
2017-06-25T14:31:02.693Z,18
2017-06-25T14:32:04.753Z,18
2017-06-25T14:33:06.802Z,17
2017-06-25T14:34:09.206Z,18
2017-06-25T14:35:11.609Z,19
2017-06-25T14:36:13.662Z,19
2017-06-25T14:37:15.725Z,20
2017-06-25T14:38:17.789Z,20
2017-06-25T14:39:19.835Z,20
2017-06-25T14:40:23.097Z,20
2017-06-25T14:41:25.346Z,20
2017-06-25T14:42:28.089Z,19
2017-06-25T14:43:30.151Z,18
2017-06-25T14:44:32.206Z,17
2017-06-25T14:45:34.601Z,15
2017-06-25T14:46:36.669Z,15
2017-06-25T14:47:38.730Z,14
2017-06-25T14:48:40.786Z,14
2017-06-25T14:49:42.828Z,15
2017-06-25T14:50:45.095Z,16
2017-06-25T14:51:47.155Z,17
2017-06-25T14:52:49.205Z,18
2017-06-25T14:53:51.259Z,17
2017-06-25T14:54:53.517Z,16
2017-06-25T14:55:55.571Z,13
2017-06-25T14:56:57.614Z,14
2017-06-25T14:58:00.021Z,14
2017-06-25T14:59:02.091Z,16
2017-06-25T15:00:04.154Z,15
2017-06-25T15:01:06.208Z,10
2017-06-25T15:02:08.257Z,10
2017-06-25T15:03:10.652Z,10
2017-06-25T15:04:12.700Z,9
2017-06-25T15:05:14.758Z,8